Ferndale, New York
Current Conditions -  °F | °C
As of 8:55 PM on Monday 24 Nov 2014 (Local Time) from KMSV Reporting Station
Clear Clear  
Wind Chill: 14°   Ceiling: Unl
Heat Index: 14°   Visibility: 10mi
Dew Point: 11°   Wind: 10mph
Humidity: 82%   Direction: 210°SSW
Pressure: 29.67"   Gusts: 17mph
Location:  41.77°N, 74.74°W
Report Text: KMSV 250155Z AUTO 21009G15KT 180V240 10SM CLR 14/11 A2967 RMK AO1
Loading
Personal Weather Stations






























Interactive Weather Map New forecast layout! Learn more

10-Day Weather Forecast

Advertisements
Track Severe Weather on mobile